createdAt,value
2018-07-23T00:00:39.458Z,355.80
2018-07-23T00:01:39.478Z,358.30
2018-07-23T00:02:39.570Z,327.20
2018-07-23T00:03:39.590Z,596.20
2018-07-23T00:04:39.628Z,298.70
2018-07-23T00:05:39.630Z,324.50
2018-07-23T00:06:39.714Z,310.60
2018-07-23T00:07:39.784Z,337.20
2018-07-23T00:08:39.786Z,340.00
2018-07-23T00:09:39.828Z,307.80
2018-07-23T00:10:39.883Z,339.00
2018-07-23T00:11:39.939Z,326.10
2018-07-23T00:12:39.971Z,320.30
2018-07-23T00:13:40.010Z,373.80
2018-07-23T00:14:40.070Z,339.30
2018-07-23T00:15:40.090Z,299.60
2018-07-23T00:16:40.141Z,385.90
2018-07-23T00:17:40.207Z,358.80
2018-07-23T00:18:40.231Z,370.80
2018-07-23T00:19:40.271Z,325.60
2018-07-23T00:20:40.339Z,327.70
2018-07-23T00:21:40.359Z,430.50
2018-07-23T00:22:40.408Z,587.30
2018-07-23T00:23:40.450Z,349.90
2018-07-23T00:24:40.482Z,334.40
2018-07-23T00:25:40.534Z,345.70
2018-07-23T00:26:40.600Z,322.00
2018-07-23T00:27:40.604Z,330.80
2018-07-23T00:28:40.661Z,431.80
2018-07-23T00:29:40.712Z,340.50
2018-07-23T00:30:40.732Z,345.10
2018-07-23T00:31:40.774Z,362.90
2018-07-23T00:32:40.832Z,332.10
2018-07-23T00:33:40.879Z,343.10
2018-07-23T00:34:40.893Z,335.20
2018-07-23T00:35:40.993Z,362.70
2018-07-23T00:36:41.043Z,342.40
2018-07-23T00:37:41.038Z,387.30
2018-07-23T00:38:41.150Z,334.50
2018-07-23T00:39:41.158Z,365.50
2018-07-23T00:40:41.228Z,341.10
2018-07-23T00:41:41.225Z,372.80
2018-07-23T00:42:41.292Z,334.60
2018-07-23T00:43:41.333Z,378.30
2018-07-23T00:44:41.345Z,367.10
2018-07-23T00:45:41.410Z,407.70
2018-07-23T00:46:41.455Z,355.30
2018-07-23T00:47:41.469Z,370.30
2018-07-23T00:48:41.554Z,373.50
2018-07-23T00:49:41.573Z,375.60
2018-07-23T00:50:41.600Z,381.30
2018-07-23T00:51:41.688Z,373.10
2018-07-23T00:52:41.709Z,383.50
2018-07-23T00:53:41.755Z,346.80
2018-07-23T00:54:41.792Z,359.30
2018-07-23T00:55:41.797Z,362.30
2018-07-23T00:56:41.864Z,364.50
2018-07-23T00:57:41.933Z,337.40
2018-07-23T00:58:41.969Z,313.90
2018-07-23T00:59:41.994Z,343.90
2018-07-23T01:00:42.094Z,333.90
2018-07-23T01:01:42.101Z,330.60
2018-07-23T01:02:42.149Z,345.00
2018-07-23T01:03:42.187Z,355.30
2018-07-23T01:04:42.253Z,318.70
2018-07-23T01:05:42.268Z,330.90
2018-07-23T01:06:42.314Z,360.30
2018-07-23T01:07:42.371Z,338.10
2018-07-23T01:08:42.381Z,420.00
2018-07-23T01:09:42.431Z,405.20
2018-07-23T01:10:42.499Z,353.40
2018-07-23T01:11:42.543Z,364.60
2018-07-23T01:12:42.571Z,430.60
2018-07-23T01:13:42.665Z,422.20
2018-07-23T01:14:42.661Z,361.30
2018-07-23T01:15:42.693Z,339.00
2018-07-23T01:16:42.727Z,520.10
2018-07-23T01:17:42.828Z,449.90
2018-07-23T01:18:42.838Z,301.60
2018-07-23T01:19:42.864Z,386.30
2018-07-23T01:20:42.908Z,319.10
2018-07-23T01:21:42.959Z,346.60
2018-07-23T01:22:43.020Z,348.40
2018-07-23T01:23:43.029Z,433.70
2018-07-23T01:24:43.074Z,413.90
2018-07-23T01:25:43.140Z,423.60
2018-07-23T01:26:43.193Z,379.10
2018-07-23T01:27:43.230Z,358.60
2018-07-23T01:28:43.251Z,356.10
2018-07-23T01:29:43.307Z,421.20
2018-07-23T01:30:43.396Z,373.10
2018-07-23T01:31:43.408Z,381.10
2018-07-23T01:32:43.455Z,350.10
2018-07-23T01:33:43.468Z,398.50
2018-07-23T01:34:43.567Z,378.40
2018-07-23T01:35:43.555Z,391.70
2018-07-23T01:36:43.576Z,358.60
2018-07-23T01:37:43.649Z,353.90
2018-07-23T01:38:43.698Z,351.50
2018-07-23T01:39:43.746Z,363.20
2018-07-23T01:40:43.783Z,383.80
2018-07-23T01:41:43.832Z,435.70
2018-07-23T01:42:43.880Z,382.60
2018-07-23T01:43:43.911Z,382.40
2018-07-23T01:44:43.955Z,361.60
2018-07-23T01:45:44.015Z,389.90
2018-07-23T01:46:44.022Z,338.00
2018-07-23T01:47:44.077Z,368.80
2018-07-23T01:48:44.142Z,380.40
2018-07-23T01:49:44.184Z,376.00
2018-07-23T01:50:44.196Z,494.40
2018-07-23T01:51:44.251Z,389.60
2018-07-23T01:52:44.301Z,376.50
2018-07-23T01:53:44.338Z,382.00
2018-07-23T01:54:44.431Z,397.70
2018-07-23T01:55:44.475Z,387.70
2018-07-23T01:56:44.480Z,370.70
2018-07-23T01:57:44.524Z,397.80
2018-07-23T01:58:44.549Z,380.50
2018-07-23T01:59:44.610Z,388.00
2018-07-23T02:00:44.628Z,381.50
2018-07-23T02:01:44.696Z,420.60
2018-07-23T02:02:44.749Z,392.00
2018-07-23T02:03:44.795Z,404.10
2018-07-23T02:04:44.822Z,360.20
2018-07-23T02:05:44.906Z,358.20
2018-07-23T02:06:44.916Z,354.60
2018-07-23T02:07:44.956Z,380.50
2018-07-23T02:08:45.211Z,379.40
2018-07-23T02:09:45.062Z,363.80
2018-07-23T02:10:45.104Z,364.70
2018-07-23T02:11:45.130Z,374.50
2018-07-23T02:12:45.186Z,363.00
2018-07-23T02:13:45.195Z,358.40
2018-07-23T02:14:45.306Z,356.30
2018-07-23T02:15:45.297Z,346.10
2018-07-23T02:16:45.405Z,377.10
2018-07-23T02:17:45.396Z,356.70
2018-07-23T02:18:45.436Z,345.00
2018-07-23T02:19:45.506Z,337.40
2018-07-23T02:20:45.570Z,335.50
2018-07-23T02:21:45.581Z,331.90
2018-07-23T02:22:45.614Z,360.90
2018-07-23T02:23:45.646Z,356.20
2018-07-23T02:24:45.706Z,376.90
2018-07-23T02:25:45.755Z,364.70
2018-07-23T02:26:45.977Z,351.30
2018-07-23T02:27:45.833Z,343.60
2018-07-23T02:28:45.861Z,358.90
2018-07-23T02:29:45.886Z,357.10
2018-07-23T02:30:45.976Z,354.90
2018-07-23T02:31:45.994Z,346.60
2018-07-23T02:32:46.029Z,428.80
2018-07-23T02:33:46.059Z,371.80
2018-07-23T02:34:46.144Z,325.70
2018-07-23T02:35:46.165Z,330.30
2018-07-23T02:36:46.225Z,391.70
2018-07-23T02:37:46.271Z,362.70
2018-07-23T02:38:46.333Z,366.20
2018-07-23T02:39:46.347Z,394.20
2018-07-23T02:40:46.382Z,362.40
2018-07-23T02:41:46.428Z,434.00
2018-07-23T02:42:46.473Z,369.90
2018-07-23T02:43:46.568Z,364.80
2018-07-23T02:44:46.549Z,447.20
2018-07-23T02:45:46.650Z,390.60
2018-07-23T02:46:46.663Z,388.90
2018-07-23T02:47:46.697Z,383.50
2018-07-23T02:48:46.768Z,382.70
2018-07-23T02:49:46.772Z,384.40
2018-07-23T02:50:46.817Z,425.70
2018-07-23T02:51:46.880Z,440.80
2018-07-23T02:52:46.928Z,423.20
2018-07-23T02:53:46.946Z,372.00
2018-07-23T02:54:47.179Z,383.20
2018-07-23T02:55:47.029Z,363.10
2018-07-23T02:56:47.084Z,377.80
2018-07-23T02:57:47.107Z,465.20
2018-07-23T02:58:47.168Z,413.10
2018-07-23T02:59:47.212Z,475.80
2018-07-23T03:00:47.242Z,371.00
2018-07-23T03:01:47.275Z,363.00
2018-07-23T03:02:47.367Z,435.40
2018-07-23T03:03:47.362Z,361.90
2018-07-23T03:04:47.418Z,460.70
2018-07-23T03:05:47.470Z,386.20
2018-07-23T03:06:47.703Z,348.90
2018-07-23T03:07:47.538Z,450.80
2018-07-23T03:08:47.614Z,386.60
2018-07-23T03:09:47.658Z,375.00
2018-07-23T03:10:47.671Z,391.00
2018-07-23T03:11:47.733Z,379.30
2018-07-23T03:12:47.777Z,396.30
2018-07-23T03:13:47.820Z,386.30
2018-07-23T03:14:47.844Z,336.90
2018-07-23T03:15:47.913Z,361.30
2018-07-23T03:16:47.927Z,391.20
2018-07-23T03:17:47.991Z,494.00
2018-07-23T03:18:48.022Z,499.70
2018-07-23T03:19:48.069Z,406.70
2018-07-23T03:20:48.104Z,394.50
2018-07-23T03:21:48.202Z,387.10
2018-07-23T03:22:48.206Z,450.60
2018-07-23T03:23:48.228Z,393.70
2018-07-23T03:24:48.304Z,377.50
2018-07-23T03:25:48.317Z,415.20
2018-07-23T03:26:48.369Z,357.00
2018-07-23T03:27:48.417Z,382.30
2018-07-23T03:28:48.454Z,398.60
2018-07-23T03:29:48.503Z,530.80
2018-07-23T03:30:48.541Z,402.50
2018-07-23T03:31:48.604Z,403.10
2018-07-23T03:32:48.671Z,369.10
2018-07-23T03:33:48.674Z,373.40
2018-07-23T03:34:48.721Z,360.80
2018-07-23T03:35:48.753Z,617.40
2018-07-23T03:36:48.774Z,328.00
2018-07-23T03:37:48.883Z,513.40
2018-07-23T03:38:48.877Z,411.90
2018-07-23T03:39:48.915Z,366.70
2018-07-23T03:40:48.989Z,512.30
2018-07-23T03:41:49.033Z,388.40
2018-07-23T03:42:49.066Z,386.60
2018-07-23T03:43:49.114Z,384.20
2018-07-23T03:44:49.141Z,370.40
2018-07-23T03:45:49.187Z,382.90
2018-07-23T03:46:49.206Z,395.90
2018-07-23T03:47:49.473Z,396.80
2018-07-23T03:48:49.325Z,388.70
2018-07-23T03:49:49.373Z,395.80
2018-07-23T03:50:49.382Z,479.30
2018-07-23T03:51:49.450Z,428.00
2018-07-23T03:52:49.491Z,444.10
2018-07-23T03:53:49.574Z,495.90
2018-07-23T03:54:49.556Z,467.30
2018-07-23T03:55:49.618Z,417.40
2018-07-23T03:56:49.633Z,406.90
2018-07-23T03:57:49.688Z,435.90
2018-07-23T03:58:49.967Z,434.80
2018-07-23T03:59:49.783Z,419.50
2018-07-23T04:00:49.817Z,393.60
2018-07-23T04:01:49.910Z,509.10
2018-07-23T04:02:49.926Z,432.10
2018-07-23T04:03:49.953Z,414.50
2018-07-23T04:04:50.064Z,591.60
2018-07-23T04:05:50.058Z,431.80
2018-07-23T04:06:50.082Z,452.60
2018-07-23T04:07:50.151Z,443.30
2018-07-23T04:08:50.171Z,480.70
2018-07-23T04:09:50.387Z,494.20
2018-07-23T04:10:50.238Z,451.60
2018-07-23T04:11:50.292Z,648.90
2018-07-23T04:12:50.378Z,456.60
2018-07-23T04:13:50.418Z,446.20
2018-07-23T04:14:50.444Z,463.50
2018-07-23T04:15:50.474Z,445.10
2018-07-23T04:16:50.496Z,648.70
2018-07-23T04:17:50.554Z,535.10
2018-07-23T04:18:50.590Z,346.40
2018-07-23T04:19:50.623Z,481.40
2018-07-23T04:20:50.683Z,440.50
2018-07-23T04:21:50.911Z,431.30
2018-07-23T04:22:50.763Z,404.30
2018-07-23T04:23:50.800Z,430.90
2018-07-23T04:24:50.844Z,371.90
2018-07-23T04:25:50.891Z,442.60
2018-07-23T04:26:50.929Z,533.00
2018-07-23T04:27:50.951Z,427.30
2018-07-23T04:28:50.993Z,358.90
2018-07-23T04:29:51.059Z,375.80
2018-07-23T04:30:51.147Z,447.90
2018-07-23T04:31:51.170Z,464.20
2018-07-23T04:32:51.432Z,465.10
2018-07-23T04:33:51.543Z,639.50
2018-07-23T04:34:51.364Z,465.40
2018-07-23T04:35:51.366Z,464.40
2018-07-23T04:36:51.397Z,468.40
2018-07-23T04:37:51.478Z,396.20
2018-07-23T04:38:51.489Z,481.50
2018-07-23T04:39:51.519Z,456.90
2018-07-23T04:40:51.777Z,399.50
2018-07-23T04:41:51.609Z,684.80
2018-07-23T04:42:51.877Z,476.00
2018-07-23T04:43:51.697Z,473.80
2018-07-23T04:44:51.761Z,471.50
2018-07-23T04:45:52.050Z,483.20
2018-07-23T04:46:51.823Z,484.90
2018-07-23T04:47:51.884Z,491.00
2018-07-23T04:48:51.925Z,481.80
2018-07-23T04:49:51.937Z,487.20
2018-07-23T04:50:51.983Z,464.30
2018-07-23T04:51:52.235Z,479.70
2018-07-23T04:52:52.079Z,476.90
2018-07-23T04:53:52.091Z,475.60
2018-07-23T04:54:52.169Z,474.60
2018-07-23T04:55:52.190Z,514.00
2018-07-23T04:56:52.650Z,479.30
2018-07-23T04:57:52.284Z,444.90
2018-07-23T04:58:52.354Z,486.30
2018-07-23T04:59:52.308Z,684.70
2018-07-23T05:00:52.598Z,464.60
2018-07-23T05:01:52.634Z,474.80
2018-07-23T05:02:52.476Z,471.20
2018-07-23T05:03:52.721Z,478.50
2018-07-23T05:04:52.609Z,472.90
2018-07-23T05:05:52.643Z,414.70
2018-07-23T05:06:52.621Z,481.30
2018-07-23T05:07:52.660Z,488.40
2018-07-23T05:08:52.759Z,446.50
2018-07-23T05:09:52.803Z,452.60
2018-07-23T05:10:54.016Z,499.20
2018-07-23T05:11:53.339Z,466.80
2018-07-23T05:12:52.927Z,488.30
2018-07-23T05:13:52.955Z,482.70
2018-07-23T05:14:53.018Z,468.60
2018-07-23T05:15:53.356Z,469.90
2018-07-23T05:16:53.085Z,493.80
2018-07-23T05:17:53.331Z,482.70
2018-07-23T05:18:53.381Z,449.80
2018-07-23T05:19:53.233Z,492.70
2018-07-23T05:20:53.267Z,494.60
2018-07-23T05:21:53.335Z,470.40
2018-07-23T05:22:53.331Z,493.90
2018-07-23T05:23:53.648Z,482.60
2018-07-23T05:24:53.437Z,496.10
2018-07-23T05:25:53.477Z,500.00
2018-07-23T05:26:53.717Z,493.10
2018-07-23T05:27:53.753Z,519.40
2018-07-23T05:28:53.590Z,516.50
2018-07-23T05:29:53.584Z,495.60
2018-07-23T05:30:53.662Z,499.90
2018-07-23T05:31:53.747Z,512.70
2018-07-23T05:32:53.768Z,500.10
2018-07-23T05:33:53.761Z,505.40
2018-07-23T05:34:54.015Z,504.40
2018-07-23T05:35:53.846Z,524.70
2018-07-23T05:36:53.915Z,507.90
2018-07-23T05:37:53.958Z,509.60
2018-07-23T05:38:54.014Z,511.90
2018-07-23T05:39:54.064Z,493.90
2018-07-23T05:40:54.114Z,501.80
2018-07-23T05:41:54.147Z,484.20
2018-07-23T05:42:54.232Z,476.70
2018-07-23T05:43:54.233Z,509.00
2018-07-23T05:44:54.327Z,480.20
2018-07-23T05:45:54.286Z,509.10
2018-07-23T05:46:54.612Z,517.50
2018-07-23T05:47:54.371Z,516.00
2018-07-23T05:48:54.435Z,501.40
2018-07-23T05:49:54.467Z,481.20
2018-07-23T05:50:54.570Z,500.30
2018-07-23T05:51:54.571Z,460.10
2018-07-23T05:52:54.581Z,487.80
2018-07-23T05:53:54.581Z,519.50
2018-07-23T05:54:54.650Z,505.40
2018-07-23T05:55:54.701Z,363.90
2018-07-23T05:56:54.721Z,460.70
2018-07-23T05:57:54.799Z,402.50
2018-07-23T05:58:54.887Z,455.70
2018-07-23T05:59:54.840Z,497.90
2018-07-23T06:00:54.954Z,484.90
2018-07-23T06:01:55.005Z,464.90
2018-07-23T06:02:55.005Z,457.50
2018-07-23T06:03:55.094Z,468.40
2018-07-23T06:04:55.083Z,463.00
2018-07-23T06:05:55.110Z,487.80
2018-07-23T06:06:55.364Z,490.00
2018-07-23T06:07:55.374Z,409.70
2018-07-23T06:08:55.272Z,489.50
2018-07-23T06:09:55.262Z,440.80
2018-07-23T06:10:55.319Z,452.50
2018-07-23T06:11:55.355Z,374.10
2018-07-23T06:12:55.419Z,449.10
2018-07-23T06:13:55.461Z,446.00
2018-07-23T06:14:55.505Z,446.50
2018-07-23T06:15:55.552Z,455.20
2018-07-23T06:16:55.593Z,438.50
2018-07-23T06:17:55.757Z,358.80
2018-07-23T06:18:55.861Z,382.80
2018-07-23T06:19:55.720Z,371.40
2018-07-23T06:20:55.783Z,409.90
2018-07-23T06:21:55.790Z,418.30
2018-07-23T06:22:55.858Z,386.60
2018-07-23T06:23:55.887Z,463.50
2018-07-23T06:24:56.047Z,382.90
2018-07-23T06:25:55.955Z,511.40
2018-07-23T06:26:56.002Z,375.50
2018-07-23T06:27:56.098Z,422.50
2018-07-23T06:28:56.097Z,386.00
2018-07-23T06:29:56.367Z,392.50
2018-07-23T06:30:56.167Z,437.80
2018-07-23T06:31:56.190Z,362.20
2018-07-23T06:32:56.256Z,399.50
2018-07-23T06:33:56.325Z,400.10
2018-07-23T06:34:56.340Z,438.20
2018-07-23T06:35:56.361Z,422.60
2018-07-23T06:36:56.466Z,378.90
2018-07-23T06:37:56.449Z,359.00
2018-07-23T06:38:56.518Z,386.70
2018-07-23T06:39:56.695Z,357.60
2018-07-23T06:40:56.600Z,400.80
2018-07-23T06:41:56.620Z,406.50
2018-07-23T06:42:56.686Z,363.90
2018-07-23T06:43:56.711Z,378.10
2018-07-23T06:44:56.971Z,388.70
2018-07-23T06:45:56.841Z,498.00
2018-07-23T06:46:56.872Z,353.20
2018-07-23T06:47:56.929Z,378.00
2018-07-23T06:48:56.923Z,393.40
2018-07-23T06:50:03.235Z,377.10
2018-07-23T06:50:57.150Z,372.70
2018-07-23T06:51:57.049Z,342.40
2018-07-23T06:52:57.096Z,504.60
2018-07-23T06:53:57.191Z,472.90
2018-07-23T06:54:57.185Z,420.20
2018-07-23T06:55:57.222Z,488.40
2018-07-23T06:56:57.492Z,334.10
2018-07-23T06:57:57.284Z,385.10
2018-07-23T06:58:57.345Z,331.90
2018-07-23T06:59:57.401Z,405.30
2018-07-23T07:00:57.442Z,372.70
2018-07-23T07:01:57.469Z,336.70
2018-07-23T07:02:57.563Z,384.10
2018-07-23T07:03:57.571Z,394.30
2018-07-23T07:04:57.657Z,360.50
2018-07-23T07:05:57.642Z,378.90
2018-07-23T07:06:57.884Z,351.00
2018-07-23T07:07:57.914Z,392.40
2018-07-23T07:08:57.785Z,337.80
2018-07-23T07:09:57.785Z,346.10
2018-07-23T07:10:57.890Z,377.50
2018-07-23T07:11:57.893Z,391.80
2018-07-23T07:12:57.929Z,559.40
2018-07-23T07:13:57.973Z,343.80
2018-07-23T07:14:58.011Z,319.00
2018-07-23T07:15:58.063Z,310.40
2018-07-23T07:16:58.100Z,367.80
2018-07-23T07:17:58.337Z,329.40
2018-07-23T07:18:58.178Z,396.80
2018-07-23T07:19:58.267Z,400.40
2018-07-23T07:20:58.288Z,365.70
2018-07-23T07:21:58.353Z,378.60
2018-07-23T07:22:58.602Z,286.80
2018-07-23T07:23:58.420Z,336.00
2018-07-23T07:24:58.485Z,411.70
2018-07-23T07:25:58.483Z,461.10
2018-07-23T07:26:58.568Z,358.60
2018-07-23T07:27:58.554Z,284.50
2018-07-23T07:28:58.661Z,428.40
2018-07-23T07:29:58.648Z,441.40
2018-07-23T07:30:58.741Z,348.00
2018-07-23T07:31:58.736Z,386.90
2018-07-23T07:32:58.971Z,284.70
2018-07-23T07:33:58.823Z,421.00
2018-07-23T07:34:58.844Z,429.00
2018-07-23T07:35:58.911Z,397.20
2018-07-23T07:36:58.934Z,393.20
2018-07-23T07:37:59.296Z,376.60
2018-07-23T07:38:59.019Z,389.90
2018-07-23T07:39:59.125Z,381.60
2018-07-23T07:40:59.120Z,408.30
2018-07-23T07:41:59.160Z,307.40
2018-07-23T07:42:59.219Z,416.90
2018-07-23T07:43:59.388Z,495.00
2018-07-23T07:44:59.305Z,353.90
2018-07-23T07:45:59.366Z,393.80
2018-07-23T07:46:59.415Z,349.60
2018-07-23T07:47:59.464Z,428.20
2018-07-23T07:48:59.473Z,350.00
2018-07-23T07:49:59.700Z,322.30
2018-07-23T07:50:59.538Z,409.90
2018-07-23T07:51:59.634Z,353.60
2018-07-23T07:52:59.638Z,398.90
2018-07-23T07:53:59.662Z,313.50
2018-07-23T07:54:59.882Z,426.90
2018-07-23T07:55:59.747Z,457.20
2018-07-23T07:56:59.782Z,488.10
2018-07-23T07:57:59.881Z,332.30
2018-07-23T07:58:59.882Z,356.10
2018-07-23T07:59:59.932Z,452.40
2018-07-23T08:01:00.014Z,427.10
2018-07-23T08:02:00.053Z,366.00
2018-07-23T08:03:00.080Z,394.90
2018-07-23T08:04:00.103Z,395.20
2018-07-23T08:05:00.337Z,355.40
2018-07-23T08:06:00.317Z,398.10
2018-07-23T08:07:00.252Z,373.90
2018-07-23T08:08:00.270Z,366.10
2018-07-23T08:09:00.294Z,434.40
2018-07-23T08:10:00.346Z,326.70
2018-07-23T08:11:00.368Z,447.70
2018-07-23T08:12:00.640Z,454.20
2018-07-23T08:13:00.469Z,391.80
2018-07-23T08:14:00.510Z,401.10
2018-07-23T08:15:00.592Z,321.50
2018-07-23T08:16:00.718Z,409.00
2018-07-23T08:17:00.798Z,434.90
2018-07-23T08:18:00.683Z,410.60
2018-07-23T08:19:00.754Z,364.20
2018-07-23T08:20:00.755Z,384.10
2018-07-23T08:21:00.819Z,407.10
2018-07-23T08:22:01.132Z,679.60
2018-07-23T08:23:01.141Z,357.20
2018-07-23T08:24:00.943Z,406.40
2018-07-23T08:25:01.010Z,437.80
2018-07-23T08:26:00.994Z,388.80
2018-07-23T08:27:01.100Z,418.80
2018-07-23T08:28:01.242Z,441.70
2018-07-23T08:29:01.154Z,404.30
2018-07-23T08:30:01.205Z,349.10
2018-07-23T08:31:01.227Z,476.70
2018-07-23T08:32:01.408Z,397.70
2018-07-23T08:33:01.327Z,399.40
2018-07-23T08:34:01.357Z,533.60
2018-07-23T08:35:01.399Z,502.80
2018-07-23T08:36:01.452Z,447.70
2018-07-23T08:37:01.519Z,417.40
2018-07-23T08:38:01.500Z,335.10
2018-07-23T08:39:01.565Z,408.30
2018-07-23T08:40:01.803Z,403.50
2018-07-23T08:41:01.689Z,430.20
2018-07-23T08:42:01.689Z,351.70
2018-07-23T08:43:01.773Z,390.10
2018-07-23T08:44:01.778Z,371.10
2018-07-23T08:45:01.850Z,326.90
2018-07-23T08:46:01.851Z,370.00
2018-07-23T08:47:01.914Z,385.80
2018-07-23T08:48:01.921Z,377.40
2018-07-23T08:49:02.000Z,401.00
2018-07-23T08:50:02.233Z,395.40
2018-07-23T08:51:02.053Z,379.20
2018-07-23T08:52:02.101Z,366.50
2018-07-23T08:53:02.185Z,390.10
2018-07-23T08:54:02.188Z,331.40
2018-07-23T08:55:02.395Z,314.70
2018-07-23T08:56:02.294Z,390.10
2018-07-23T08:57:02.330Z,405.30
2018-07-23T08:58:02.367Z,336.30
2018-07-23T08:59:02.386Z,371.40
2018-07-23T09:00:02.505Z,322.70
2018-07-23T09:01:02.676Z,286.10
2018-07-23T09:02:02.537Z,325.40
2018-07-23T09:03:02.556Z,344.80
2018-07-23T09:04:02.619Z,364.60
2018-07-23T09:05:02.665Z,449.40
2018-07-23T09:06:02.704Z,381.50
2018-07-23T09:07:02.749Z,350.90
2018-07-23T09:08:02.778Z,332.00
2018-07-23T09:09:02.836Z,524.40
2018-07-23T09:10:02.870Z,352.30
2018-07-23T09:11:02.980Z,315.00
2018-07-23T09:12:03.163Z,375.30
2018-07-23T09:13:03.240Z,343.00
2018-07-23T09:14:03.038Z,389.70
2018-07-23T09:15:03.088Z,274.40
2018-07-23T09:16:03.145Z,377.40
2018-07-23T09:17:03.165Z,493.40
2018-07-23T09:18:03.259Z,557.60
2018-07-23T09:19:03.261Z,314.90
2018-07-23T09:20:03.357Z,335.30
2018-07-23T09:21:03.320Z,429.60
2018-07-23T09:22:03.402Z,324.10
2018-07-23T09:23:03.424Z,301.00
2018-07-23T09:24:03.612Z,465.00
2018-07-23T09:25:03.730Z,338.30
2018-07-23T09:26:03.539Z,300.80
2018-07-23T09:27:03.598Z,318.20
2018-07-23T09:28:03.628Z,353.50
2018-07-23T09:29:03.678Z,332.60
2018-07-23T09:30:03.700Z,314.40
2018-07-23T09:31:03.765Z,352.90
2018-07-23T09:32:03.845Z,357.20
2018-07-23T09:33:03.833Z,334.10
2018-07-23T09:34:03.893Z,353.10
2018-07-23T09:35:04.136Z,336.00
2018-07-23T09:36:03.941Z,315.10
2018-07-23T09:37:04.015Z,324.20
2018-07-23T09:38:04.083Z,329.20
2018-07-23T09:39:04.095Z,325.20
2018-07-23T09:40:04.132Z,325.50
2018-07-23T09:41:04.192Z,353.60
2018-07-23T09:42:04.214Z,352.30
2018-07-23T09:43:04.246Z,311.20
2018-07-23T09:44:04.292Z,435.80
2018-07-23T09:45:04.361Z,292.70
2018-07-23T09:46:04.544Z,303.00
2018-07-23T09:47:04.434Z,337.50
2018-07-23T09:48:04.486Z,313.50
2018-07-23T09:49:04.518Z,287.00
2018-07-23T09:50:04.544Z,278.90
2018-07-23T09:51:04.612Z,289.00
2018-07-23T09:52:04.855Z,325.50
2018-07-23T09:53:04.696Z,242.50
2018-07-23T09:54:04.756Z,293.30
2018-07-23T09:55:04.767Z,296.50
2018-07-23T09:56:04.802Z,314.60
2018-07-23T09:57:04.848Z,299.40
2018-07-23T09:58:05.054Z,286.40
2018-07-23T09:59:05.002Z,283.50
2018-07-23T10:00:04.998Z,369.80
2018-07-23T10:01:05.027Z,297.30
2018-07-23T10:02:05.059Z,323.70
2018-07-23T10:03:05.256Z,277.70
2018-07-23T10:04:05.136Z,291.40
2018-07-23T10:05:05.226Z,335.90
2018-07-23T10:06:05.218Z,302.30
2018-07-23T10:07:05.256Z,296.10
2018-07-23T10:08:05.462Z,335.10
2018-07-23T10:09:05.357Z,270.80
2018-07-23T10:10:05.389Z,278.40
2018-07-23T10:11:05.442Z,335.60
2018-07-23T10:12:05.494Z,396.40
2018-07-23T10:13:05.532Z,416.20
2018-07-23T10:14:05.609Z,323.00
2018-07-23T10:15:05.613Z,318.80
2018-07-23T10:16:05.652Z,297.70
2018-07-23T10:17:05.686Z,303.00
2018-07-23T10:18:05.950Z,501.20
2018-07-23T10:19:05.773Z,303.00
2018-07-23T10:20:05.817Z,360.90
2018-07-23T10:21:05.877Z,299.60
2018-07-23T10:22:05.905Z,296.60
2018-07-23T10:23:05.958Z,296.40
2018-07-23T10:24:05.998Z,281.80
2018-07-23T10:25:06.178Z,302.60
2018-07-23T10:26:06.097Z,316.70
2018-07-23T10:27:06.113Z,348.60
2018-07-23T10:28:06.163Z,307.00
2018-07-23T10:29:06.210Z,328.30
2018-07-23T10:30:06.219Z,289.00
2018-07-23T10:31:06.309Z,304.90
2018-07-23T10:32:06.321Z,307.90
2018-07-23T10:33:06.360Z,333.10
2018-07-23T10:34:06.427Z,297.80
2018-07-23T10:35:06.477Z,302.80
2018-07-23T10:36:06.711Z,290.90
2018-07-23T10:37:06.638Z,301.40
2018-07-23T10:38:06.613Z,338.00
2018-07-23T10:39:06.687Z,280.40
2018-07-23T10:40:06.643Z,260.40
2018-07-23T10:41:06.808Z,272.20
2018-07-23T10:42:06.993Z,302.20
2018-07-23T10:43:06.842Z,293.00
2018-07-23T10:44:06.888Z,260.90
2018-07-23T10:45:06.937Z,271.00
2018-07-23T10:46:06.943Z,245.00
2018-07-23T10:47:06.982Z,220.90
2018-07-23T10:48:07.010Z,209.20
2018-07-23T10:49:07.049Z,213.20
2018-07-23T10:50:07.125Z,247.90
2018-07-23T10:51:07.130Z,230.40
2018-07-23T10:52:07.377Z,242.90
2018-07-23T10:53:07.220Z,207.10
2018-07-23T10:54:07.294Z,201.10
2018-07-23T10:55:07.310Z,206.80
2018-07-23T10:56:07.352Z,334.70
2018-07-23T10:57:07.644Z,211.90
2018-07-23T10:58:07.408Z,195.60
2018-07-23T10:59:07.467Z,182.90
2018-07-23T11:00:07.524Z,212.80
2018-07-23T11:01:07.581Z,198.10
2018-07-23T11:02:07.602Z,177.70
2018-07-23T11:03:07.913Z,211.00
2018-07-23T11:04:07.715Z,194.10
2018-07-23T11:05:07.734Z,167.50
2018-07-23T11:06:07.802Z,162.70
2018-07-23T11:07:07.839Z,169.80
2018-07-23T11:08:08.087Z,258.60
2018-07-23T11:09:07.933Z,240.80
2018-07-23T11:10:07.975Z,238.90
2018-07-23T11:11:08.014Z,232.20
2018-07-23T11:12:08.055Z,156.70
2018-07-23T11:13:08.116Z,175.90
2018-07-23T11:14:08.277Z,163.00
2018-07-23T11:15:08.187Z,202.20
2018-07-23T11:16:08.298Z,167.70
2018-07-23T11:17:08.294Z,165.80
2018-07-23T11:18:08.330Z,181.60
2018-07-23T11:19:08.408Z,328.30
2018-07-23T11:20:08.415Z,314.30
2018-07-23T11:21:08.476Z,213.80
2018-07-23T11:22:08.525Z,175.00
2018-07-23T11:23:08.537Z,155.20
2018-07-23T11:24:08.596Z,182.50
2018-07-23T11:25:38.595Z,182.90
2018-07-23T11:26:08.729Z,199.00
2018-07-23T11:27:08.762Z,188.20
2018-07-23T11:28:08.795Z,216.20
2018-07-23T11:29:08.837Z,229.20
2018-07-23T11:30:08.886Z,222.50
2018-07-23T11:31:08.971Z,240.30
2018-07-23T11:32:09.087Z,218.50
2018-07-23T11:33:09.014Z,189.80
2018-07-23T11:34:09.077Z,228.10
2018-07-23T11:35:09.335Z,216.00
2018-07-23T11:36:09.164Z,199.80
2018-07-23T11:37:09.214Z,272.70
2018-07-23T11:38:09.285Z,217.80
2018-07-23T11:39:09.290Z,243.40
2018-07-23T11:40:09.347Z,242.80
2018-07-23T11:41:09.546Z,258.70
2018-07-23T11:42:09.432Z,289.30
2018-07-23T11:43:09.484Z,217.00
2018-07-23T11:44:09.550Z,175.10
2018-07-23T11:45:09.636Z,182.70
2018-07-23T11:46:24.418Z,181.00
2018-07-23T11:47:09.863Z,161.40
2018-07-23T11:48:09.796Z,241.00
2018-07-23T11:49:09.798Z,256.20
2018-07-23T11:50:09.829Z,281.90
2018-07-23T11:51:09.913Z,272.80
2018-07-23T11:52:14.353Z,294.20
2018-07-23T11:53:10.203Z,285.50
2018-07-23T11:54:10.029Z,297.40
2018-07-23T11:55:10.075Z,285.70
2018-07-23T11:56:10.119Z,283.90
2018-07-23T11:57:10.192Z,284.40
2018-07-23T11:58:10.449Z,279.90
2018-07-23T11:59:10.273Z,274.20
2018-07-23T12:00:10.324Z,284.80
2018-07-23T12:01:10.363Z,254.50
2018-07-23T12:02:10.410Z,261.40
2018-07-23T12:03:10.471Z,241.20
2018-07-23T12:04:10.737Z,235.60
2018-07-23T12:05:10.576Z,243.30
2018-07-23T12:06:10.631Z,238.70
2018-07-23T12:07:10.674Z,214.90
2018-07-23T12:08:11.020Z,244.20
2018-07-23T12:09:10.785Z,255.60
2018-07-23T12:10:10.811Z,249.30
2018-07-23T12:11:10.879Z,257.30
2018-07-23T12:12:10.945Z,264.50
2018-07-23T12:13:10.999Z,275.80
2018-07-23T12:14:11.018Z,252.20
2018-07-23T12:15:11.093Z,270.40
2018-07-23T12:16:11.144Z,218.40
2018-07-23T12:17:11.235Z,235.60
2018-07-23T12:18:11.210Z,250.10
2018-07-23T12:19:11.318Z,205.90
2018-07-23T12:20:11.331Z,205.20
2018-07-23T12:21:11.378Z,231.60
2018-07-23T12:22:11.445Z,213.20
2018-07-23T12:23:11.693Z,222.90
2018-07-23T12:24:11.554Z,211.70
2018-07-23T12:25:11.599Z,202.50
2018-07-23T12:26:11.784Z,198.30
2018-07-23T12:27:11.699Z,191.40
2018-07-23T12:28:11.756Z,201.40
2018-07-23T12:29:11.990Z,153.60